sensor_id;sensor_type;location;lat;lon;timestamp;P1;durP1;ratioP1;P2;durP2;ratioP2
10230;SDS011;62604;49.432;8.680;2023-03-01T00:01:26;7.73;;;5.70;;
10230;SDS011;62604;49.432;8.680;2023-03-01T00:03:56;8.03;;;5.93;;
10230;SDS011;62604;49.432;8.680;2023-03-01T00:06:24;10.07;;;6.33;;
10230;SDS011;62604;49.432;8.680;2023-03-01T00:08:52;13.03;;;7.53;;
10230;SDS011;62604;49.432;8.680;2023-03-01T00:11:20;7.70;;;6.37;;
10230;SDS011;62604;49.432;8.680;2023-03-01T00:13:48;11.70;;;6.43;;
10230;SDS011;62604;49.432;8.680;2023-03-01T00:16:18;10.43;;;7.20;;
10230;SDS011;62604;49.432;8.680;2023-03-01T00:18:46;10.37;;;6.93;;
10230;SDS011;62604;49.432;8.680;2023-03-01T00:21:15;8.70;;;7.00;;
10230;SDS011;62604;49.432;8.680;2023-03-01T00:23:41;7.57;;;6.87;;
10230;SDS011;62604;49.432;8.680;2023-03-01T00:26:10;9.83;;;7.40;;
10230;SDS011;62604;49.432;8.680;2023-03-01T00:28:39;7.83;;;7.03;;
10230;SDS011;62604;49.432;8.680;2023-03-01T00:31:06;9.10;;;7.13;;
10230;SDS011;62604;49.432;8.680;2023-03-01T00:33:35;13.00;;;6.70;;
10230;SDS011;62604;49.432;8.680;2023-03-01T00:36:02;9.90;;;7.30;;
10230;SDS011;62604;49.432;8.680;2023-03-01T00:38:33;11.20;;;7.63;;
10230;SDS011;62604;49.432;8.680;2023-03-01T00:41:02;8.53;;;7.63;;
10230;SDS011;62604;49.432;8.680;2023-03-01T00:43:30;9.10;;;7.27;;
10230;SDS011;62604;49.432;8.680;2023-03-01T00:46:01;10.40;;;8.17;;
10230;SDS011;62604;49.432;8.680;2023-03-01T00:48:29;11.57;;;7.57;;
10230;SDS011;62604;49.432;8.680;2023-03-01T00:50:56;11.37;;;7.63;;
10230;SDS011;62604;49.432;8.680;2023-03-01T00:53:23;11.57;;;7.80;;
10230;SDS011;62604;49.432;8.680;2023-03-01T00:55:51;7.97;;;7.17;;
10230;SDS011;62604;49.432;8.680;2023-03-01T00:58:18;11.97;;;7.87;;
10230;SDS011;62604;49.432;8.680;2023-03-01T01:00:45;8.07;;;7.07;;
10230;SDS011;62604;49.432;8.680;2023-03-01T01:03:11;11.23;;;8.00;;
10230;SDS011;62604;49.432;8.680;2023-03-01T01:05:38;8.40;;;7.40;;
10230;SDS011;62604;49.432;8.680;2023-03-01T01:08:05;8.27;;;7.47;;
10230;SDS011;62604;49.432;8.680;2023-03-01T01:10:33;8.93;;;7.07;;
10230;SDS011;62604;49.432;8.680;2023-03-01T01:13:01;9.00;;;6.87;;
10230;SDS011;62604;49.432;8.680;2023-03-01T01:15:28;10.37;;;7.63;;
10230;SDS011;62604;49.432;8.680;2023-03-01T01:17:59;7.77;;;6.90;;
10230;SDS011;62604;49.432;8.680;2023-03-01T01:20:29;11.40;;;8.07;;
10230;SDS011;62604;49.432;8.680;2023-03-01T01:22:56;8.20;;;7.23;;
10230;SDS011;62604;49.432;8.680;2023-03-01T01:25:23;10.77;;;7.83;;
10230;SDS011;62604;49.432;8.680;2023-03-01T01:27:53;10.40;;;7.93;;
10230;SDS011;62604;49.432;8.680;2023-03-01T01:30:24;12.37;;;8.10;;
10230;SDS011;62604;49.432;8.680;2023-03-01T01:35:58;14.87;;;7.83;;
10230;SDS011;62604;49.432;8.680;2023-03-01T01:38:25;11.27;;;7.70;;
10230;SDS011;62604;49.432;8.680;2023-03-01T01:40:52;12.77;;;8.10;;
10230;SDS011;62604;49.432;8.680;2023-03-01T01:43:20;11.83;;;7.43;;
10230;SDS011;62604;49.432;8.680;2023-03-01T01:45:50;14.40;;;8.60;;
10230;SDS011;62604;49.432;8.680;2023-03-01T01:48:19;13.43;;;8.50;;
10230;SDS011;62604;49.432;8.680;2023-03-01T01:50:51;10.13;;;8.33;;
10230;SDS011;62604;49.432;8.680;2023-03-01T01:53:23;9.80;;;8.00;;
10230;SDS011;62604;49.432;8.680;2023-03-01T01:55:52;10.50;;;7.53;;
10230;SDS011;62604;49.432;8.680;2023-03-01T01:58:22;10.37;;;7.53;;
10230;SDS011;62604;49.432;8.680;2023-03-01T02:00:53;10.20;;;8.03;;
10230;SDS011;62604;49.432;8.680;2023-03-01T02:03:23;12.43;;;7.63;;
10230;SDS011;62604;49.432;8.680;2023-03-01T02:05:55;9.60;;;7.53;;
10230;SDS011;62604;49.432;8.680;2023-03-01T02:08:27;14.10;;;7.17;;
10230;SDS011;62604;49.432;8.680;2023-03-01T02:10:57;9.77;;;7.53;;
10230;SDS011;62604;49.432;8.680;2023-03-01T02:13:25;12.50;;;9.00;;
10230;SDS011;62604;49.432;8.680;2023-03-01T02:15:54;11.73;;;7.90;;
10230;SDS011;62604;49.432;8.680;2023-03-01T02:18:22;11.03;;;7.93;;
10230;SDS011;62604;49.432;8.680;2023-03-01T02:23:41;11.17;;;6.97;;
10230;SDS011;62604;49.432;8.680;2023-03-01T02:26:11;10.73;;;7.93;;
10230;SDS011;62604;49.432;8.680;2023-03-01T02:28:45;14.87;;;8.27;;
10230;SDS011;62604;49.432;8.680;2023-03-01T02:31:14;12.50;;;8.47;;
10230;SDS011;62604;49.432;8.680;2023-03-01T02:34:01;10.97;;;8.13;;
10230;SDS011;62604;49.432;8.680;2023-03-01T02:36:30;14.10;;;8.57;;
10230;SDS011;62604;49.432;8.680;2023-03-01T02:39:02;9.90;;;7.77;;
10230;SDS011;62604;49.432;8.680;2023-03-01T02:41:33;9.87;;;7.73;;
10230;SDS011;62604;49.432;8.680;2023-03-01T02:44:04;11.63;;;8.70;;
10230;SDS011;62604;49.432;8.680;2023-03-01T02:46:31;12.57;;;8.50;;
10230;SDS011;62604;49.432;8.680;2023-03-01T02:48:58;11.23;;;8.57;;
10230;SDS011;62604;49.432;8.680;2023-03-01T02:51:27;12.03;;;8.63;;
10230;SDS011;62604;49.432;8.680;2023-03-01T02:54:07;11.37;;;7.90;;
10230;SDS011;62604;49.432;8.680;2023-03-01T02:56:39;9.70;;;7.60;;
10230;SDS011;62604;49.432;8.680;2023-03-01T02:59:08;12.67;;;8.67;;
10230;SDS011;62604;49.432;8.680;2023-03-01T03:01:36;13.73;;;8.97;;
10230;SDS011;62604;49.432;8.680;2023-03-01T03:04:04;15.43;;;8.47;;
10230;SDS011;62604;49.432;8.680;2023-03-01T03:06:31;11.67;;;8.87;;
10230;SDS011;62604;49.432;8.680;2023-03-01T03:08:58;11.13;;;8.20;;
10230;SDS011;62604;49.432;8.680;2023-03-01T03:11:25;10.37;;;8.27;;
10230;SDS011;62604;49.432;8.680;2023-03-01T03:13:52;15.07;;;8.90;;
10230;SDS011;62604;49.432;8.680;2023-03-01T03:16:21;14.63;;;9.20;;
10230;SDS011;62604;49.432;8.680;2023-03-01T03:18:48;11.90;;;8.30;;
10230;SDS011;62604;49.432;8.680;2023-03-01T03:21:16;10.37;;;8.77;;
10230;SDS011;62604;49.432;8.680;2023-03-01T03:23:43;15.83;;;8.73;;
10230;SDS011;62604;49.432;8.680;2023-03-01T03:26:10;11.60;;;9.03;;
10230;SDS011;62604;49.432;8.680;2023-03-01T03:28:40;13.83;;;8.20;;
10230;SDS011;62604;49.432;8.680;2023-03-01T03:31:07;10.47;;;8.60;;
10230;SDS011;62604;49.432;8.680;2023-03-01T03:33:35;13.20;;;8.43;;
10230;SDS011;62604;49.432;8.680;2023-03-01T03:36:03;9.53;;;7.47;;
10230;SDS011;62604;49.432;8.680;2023-03-01T03:38:31;12.17;;;6.93;;
10230;SDS011;62604;49.432;8.680;2023-03-01T03:41:01;11.13;;;6.77;;
10230;SDS011;62604;49.432;8.680;2023-03-01T03:43:30;10.33;;;6.47;;
10230;SDS011;62604;49.432;8.680;2023-03-01T03:45:59;14.60;;;7.07;;
10230;SDS011;62604;49.432;8.680;2023-03-01T03:48:26;14.33;;;7.93;;
10230;SDS011;62604;49.432;8.680;2023-03-01T03:50:55;12.70;;;7.30;;
10230;SDS011;62604;49.432;8.680;2023-03-01T03:53:25;8.73;;;6.03;;
10230;SDS011;62604;49.432;8.680;2023-03-01T03:55:55;15.17;;;6.80;;
10230;SDS011;62604;49.432;8.680;2023-03-01T03:58:23;12.33;;;6.83;;
10230;SDS011;62604;49.432;8.680;2023-03-01T04:00:52;13.50;;;8.17;;
10230;SDS011;62604;49.432;8.680;2023-03-01T04:03:21;12.43;;;7.93;;
10230;SDS011;62604;49.432;8.680;2023-03-01T04:05:49;13.77;;;8.83;;
10230;SDS011;62604;49.432;8.680;2023-03-01T04:08:18;12.20;;;8.33;;
10230;SDS011;62604;49.432;8.680;2023-03-01T04:10:46;10.77;;;7.43;;
10230;SDS011;62604;49.432;8.680;2023-03-01T04:13:16;9.10;;;5.57;;
10230;SDS011;62604;49.432;8.680;2023-03-01T04:15:45;12.20;;;7.27;;
10230;SDS011;62604;49.432;8.680;2023-03-01T04:18:13;12.13;;;6.47;;
10230;SDS011;62604;49.432;8.680;2023-03-01T04:20:42;10.27;;;6.53;;
10230;SDS011;62604;49.432;8.680;2023-03-01T04:23:10;13.93;;;8.10;;
10230;SDS011;62604;49.432;8.680;2023-03-01T04:25:42;10.47;;;7.67;;
10230;SDS011;62604;49.432;8.680;2023-03-01T04:28:14;10.37;;;7.43;;
10230;SDS011;62604;49.432;8.680;2023-03-01T04:30:42;12.70;;;7.93;;
10230;SDS011;62604;49.432;8.680;2023-03-01T04:33:09;13.87;;;8.10;;
10230;SDS011;62604;49.432;8.680;2023-03-01T04:35:37;13.83;;;7.23;;
10230;SDS011;62604;49.432;8.680;2023-03-01T04:38:05;13.10;;;6.80;;
10230;SDS011;62604;49.432;8.680;2023-03-01T04:40:33;12.17;;;7.87;;
10230;SDS011;62604;49.432;8.680;2023-03-01T04:43:02;12.90;;;8.83;;
10230;SDS011;62604;49.432;8.680;2023-03-01T04:45:31;11.10;;;8.23;;
10230;SDS011;62604;49.432;8.680;2023-03-01T04:47:59;15.60;;;8.70;;
10230;SDS011;62604;49.432;8.680;2023-03-01T04:50:26;11.43;;;7.80;;
10230;SDS011;62604;49.432;8.680;2023-03-01T04:52:53;11.27;;;6.33;;
10230;SDS011;62604;49.432;8.680;2023-03-01T04:55:23;15.13;;;6.50;;
10230;SDS011;62604;49.432;8.680;2023-03-01T04:57:51;10.83;;;6.07;;
10230;SDS011;62604;49.432;8.680;2023-03-01T05:00:20;10.97;;;6.50;;
10230;SDS011;62604;49.432;8.680;2023-03-01T05:02:48;14.30;;;7.40;;
10230;SDS011;62604;49.432;8.680;2023-03-01T05:05:20;11.57;;;6.70;;
10230;SDS011;62604;49.432;8.680;2023-03-01T05:07:50;14.30;;;6.60;;
10230;SDS011;62604;49.432;8.680;2023-03-01T05:10:22;12.40;;;7.17;;
10230;SDS011;62604;49.432;8.680;2023-03-01T05:12:52;12.50;;;7.00;;
10230;SDS011;62604;49.432;8.680;2023-03-01T05:15:20;12.67;;;7.37;;
10230;SDS011;62604;49.432;8.680;2023-03-01T05:17:50;13.30;;;8.17;;
10230;SDS011;62604;49.432;8.680;2023-03-01T05:20:18;17.03;;;7.50;;
10230;SDS011;62604;49.432;8.680;2023-03-01T05:22:48;15.57;;;7.00;;
10230;SDS011;62604;49.432;8.680;2023-03-01T05:25:16;15.77;;;8.53;;
10230;SDS011;62604;49.432;8.680;2023-03-01T05:27:43;13.50;;;9.40;;
10230;SDS011;62604;49.432;8.680;2023-03-01T05:30:10;10.73;;;7.70;;
10230;SDS011;62604;49.432;8.680;2023-03-01T05:32:43;16.17;;;7.83;;
10230;SDS011;62604;49.432;8.680;2023-03-01T05:35:11;15.07;;;8.57;;
10230;SDS011;62604;49.432;8.680;2023-03-01T05:37:42;10.47;;;7.20;;
10230;SDS011;62604;49.432;8.680;2023-03-01T05:40:11;13.57;;;7.90;;
10230;SDS011;62604;49.432;8.680;2023-03-01T05:42:45;10.47;;;7.47;;
10230;SDS011;62604;49.432;8.680;2023-03-01T05:45:12;12.80;;;7.93;;
10230;SDS011;62604;49.432;8.680;2023-03-01T05:47:42;14.97;;;7.67;;
10230;SDS011;62604;49.432;8.680;2023-03-01T05:50:11;12.13;;;7.17;;
10230;SDS011;62604;49.432;8.680;2023-03-01T05:52:39;11.53;;;7.50;;
10230;SDS011;62604;49.432;8.680;2023-03-01T05:55:06;10.90;;;7.37;;
10230;SDS011;62604;49.432;8.680;2023-03-01T05:57:34;11.93;;;8.40;;
10230;SDS011;62604;49.432;8.680;2023-03-01T06:00:01;14.20;;;7.97;;
10230;SDS011;62604;49.432;8.680;2023-03-01T06:02:28;15.27;;;8.33;;
10230;SDS011;62604;49.432;8.680;2023-03-01T06:04:56;10.47;;;6.53;;
10230;SDS011;62604;49.432;8.680;2023-03-01T06:07:23;14.73;;;8.07;;
10230;SDS011;62604;49.432;8.680;2023-03-01T06:09:50;13.23;;;8.33;;
10230;SDS011;62604;49.432;8.680;2023-03-01T06:12:17;8.97;;;7.13;;
10230;SDS011;62604;49.432;8.680;2023-03-01T06:14:44;12.73;;;7.67;;
10230;SDS011;62604;49.432;8.680;2023-03-01T06:17:12;10.90;;;7.63;;
10230;SDS011;62604;49.432;8.680;2023-03-01T06:19:40;11.87;;;7.10;;
10230;SDS011;62604;49.432;8.680;2023-03-01T06:22:08;13.10;;;7.93;;
10230;SDS011;62604;49.432;8.680;2023-03-01T06:24:36;10.83;;;8.53;;
10230;SDS011;62604;49.432;8.680;2023-03-01T06:27:03;13.77;;;8.23;;
10230;SDS011;62604;49.432;8.680;2023-03-01T06:29:30;12.90;;;8.60;;
10230;SDS011;62604;49.432;8.680;2023-03-01T06:31:57;11.33;;;7.97;;
10230;SDS011;62604;49.432;8.680;2023-03-01T06:34:24;11.93;;;7.83;;
10230;SDS011;62604;49.432;8.680;2023-03-01T06:36:51;12.70;;;7.67;;
10230;SDS011;62604;49.432;8.680;2023-03-01T06:39:19;12.70;;;7.60;;
10230;SDS011;62604;49.432;8.680;2023-03-01T06:41:46;11.43;;;7.33;;
10230;SDS011;62604;49.432;8.680;2023-03-01T06:44:13;12.40;;;8.13;;
10230;SDS011;62604;49.432;8.680;2023-03-01T06:46:40;12.37;;;8.33;;
10230;SDS011;62604;49.432;8.680;2023-03-01T06:49:07;17.23;;;7.80;;
10230;SDS011;62604;49.432;8.680;2023-03-01T06:51:34;14.33;;;7.80;;
10230;SDS011;62604;49.432;8.680;2023-03-01T06:54:02;15.63;;;8.53;;
10230;SDS011;62604;49.432;8.680;2023-03-01T06:56:31;14.80;;;7.97;;
10230;SDS011;62604;49.432;8.680;2023-03-01T06:58:58;13.93;;;7.57;;
10230;SDS011;62604;49.432;8.680;2023-03-01T07:01:25;12.23;;;7.57;;
10230;SDS011;62604;49.432;8.680;2023-03-01T07:03:52;11.60;;;6.63;;
10230;SDS011;62604;49.432;8.680;2023-03-01T07:06:19;11.93;;;6.67;;
10230;SDS011;62604;49.432;8.680;2023-03-01T07:08:46;15.30;;;7.47;;
10230;SDS011;62604;49.432;8.680;2023-03-01T07:11:13;11.17;;;7.13;;
10230;SDS011;62604;49.432;8.680;2023-03-01T07:13:41;12.63;;;6.90;;
10230;SDS011;62604;49.432;8.680;2023-03-01T07:16:08;11.40;;;8.33;;
10230;SDS011;62604;49.432;8.680;2023-03-01T07:18:35;14.77;;;9.90;;
10230;SDS011;62604;49.432;8.680;2023-03-01T07:21:05;14.20;;;9.83;;
10230;SDS011;62604;49.432;8.680;2023-03-01T07:23:33;10.00;;;8.13;;
10230;SDS011;62604;49.432;8.680;2023-03-01T07:26:00;15.27;;;9.70;;
10230;SDS011;62604;49.432;8.680;2023-03-01T07:28:27;13.23;;;10.13;;
10230;SDS011;62604;49.432;8.680;2023-03-01T07:30:59;19.00;;;10.27;;
10230;SDS011;62604;49.432;8.680;2023-03-01T07:33:27;13.30;;;9.60;;
10230;SDS011;62604;49.432;8.680;2023-03-01T07:35:57;15.17;;;10.20;;
10230;SDS011;62604;49.432;8.680;2023-03-01T07:38:25;11.07;;;9.67;;
10230;SDS011;62604;49.432;8.680;2023-03-01T07:40:52;11.00;;;9.03;;
10230;SDS011;62604;49.432;8.680;2023-03-01T07:43:19;12.80;;;9.93;;
10230;SDS011;62604;49.432;8.680;2023-03-01T07:45:46;14.97;;;9.77;;
10230;SDS011;62604;49.432;8.680;2023-03-01T07:48:14;12.77;;;10.10;;
10230;SDS011;62604;49.432;8.680;2023-03-01T07:50:41;12.47;;;9.13;;
10230;SDS011;62604;49.432;8.680;2023-03-01T07:53:08;10.93;;;9.63;;
10230;SDS011;62604;49.432;8.680;2023-03-01T07:55:35;12.03;;;10.20;;
10230;SDS011;62604;49.432;8.680;2023-03-01T07:58:02;13.27;;;9.03;;
10230;SDS011;62604;49.432;8.680;2023-03-01T08:00:29;11.17;;;10.07;;
10230;SDS011;62604;49.432;8.680;2023-03-01T08:02:58;11.05;;;9.85;;
10230;SDS011;62604;49.432;8.680;2023-03-01T08:05:27;12.30;;;10.23;;
10230;SDS011;62604;49.432;8.680;2023-03-01T08:07:54;11.70;;;9.85;;
10230;SDS011;62604;49.432;8.680;2023-03-01T08:10:21;13.38;;;10.15;;
10230;SDS011;62604;49.432;8.680;2023-03-01T08:12:48;11.45;;;10.25;;
10230;SDS011;62604;49.432;8.680;2023-03-01T08:15:17;12.52;;;10.00;;
10230;SDS011;62604;49.432;8.680;2023-03-01T08:17:44;11.00;;;9.85;;
10230;SDS011;62604;49.432;8.680;2023-03-01T08:20:11;10.20;;;9.05;;
10230;SDS011;62604;49.432;8.680;2023-03-01T08:22:40;11.30;;;9.77;;
10230;SDS011;62604;49.432;8.680;2023-03-01T08:25:07;14.98;;;10.52;;
10230;SDS011;62604;49.432;8.680;2023-03-01T08:27:34;12.32;;;10.30;;
10230;SDS011;62604;49.432;8.680;2023-03-01T08:30:01;10.90;;;9.80;;
10230;SDS011;62604;49.432;8.680;2023-03-01T08:32:28;12.50;;;9.48;;
10230;SDS011;62604;49.432;8.680;2023-03-01T08:34:55;11.05;;;9.77;;
10230;SDS011;62604;49.432;8.680;2023-03-01T08:37:22;12.10;;;9.30;;
10230;SDS011;62604;49.432;8.680;2023-03-01T08:39:50;10.50;;;9.40;;
10230;SDS011;62604;49.432;8.680;2023-03-01T08:42:17;13.02;;;11.07;;
10230;SDS011;62604;49.432;8.680;2023-03-01T08:44:44;13.57;;;10.23;;
10230;SDS011;62604;49.432;8.680;2023-03-01T08:47:11;11.98;;;10.60;;
10230;SDS011;62604;49.432;8.680;2023-03-01T08:49:38;11.45;;;9.80;;
10230;SDS011;62604;49.432;8.680;2023-03-01T08:52:05;11.60;;;9.95;;
10230;SDS011;62604;49.432;8.680;2023-03-01T08:54:31;11.23;;;10.15;;
10230;SDS011;62604;49.432;8.680;2023-03-01T08:57:02;15.60;;;11.60;;
10230;SDS011;62604;49.432;8.680;2023-03-01T08:59:29;10.98;;;9.88;;
10230;SDS011;62604;49.432;8.680;2023-03-01T09:02:00;12.45;;;10.25;;
10230;SDS011;62604;49.432;8.680;2023-03-01T09:04:27;12.95;;;10.50;;
10230;SDS011;62604;49.432;8.680;2023-03-01T09:06:54;12.63;;;10.75;;
10230;SDS011;62604;49.432;8.680;2023-03-01T09:09:21;13.95;;;11.55;;
10230;SDS011;62604;49.432;8.680;2023-03-01T09:11:48;11.48;;;10.43;;
10230;SDS011;62604;49.432;8.680;2023-03-01T09:14:17;12.18;;;10.75;;
10230;SDS011;62604;49.432;8.680;2023-03-01T09:16:44;12.20;;;10.93;;
10230;SDS011;62604;49.432;8.680;2023-03-01T09:19:11;10.80;;;9.73;;
10230;SDS011;62604;49.432;8.680;2023-03-01T09:21:38;12.18;;;10.85;;
10230;SDS011;62604;49.432;8.680;2023-03-01T09:24:06;12.20;;;10.57;;
10230;SDS011;62604;49.432;8.680;2023-03-01T09:26:38;15.77;;;11.43;;
10230;SDS011;62604;49.432;8.680;2023-03-01T09:29:04;16.40;;;11.25;;
10230;SDS011;62604;49.432;8.680;2023-03-01T09:31:33;12.57;;;10.80;;
10230;SDS011;62604;49.432;8.680;2023-03-01T09:33:59;12.68;;;10.98;;
10230;SDS011;62604;49.432;8.680;2023-03-01T09:36:26;14.23;;;11.23;;
10230;SDS011;62604;49.432;8.680;2023-03-01T09:38:53;11.77;;;10.60;;
10230;SDS011;62604;49.432;8.680;2023-03-01T09:41:26;14.25;;;10.68;;
10230;SDS011;62604;49.432;8.680;2023-03-01T09:44:10;11.63;;;10.45;;
10230;SDS011;62604;49.432;8.680;2023-03-01T09:46:46;11.43;;;9.95;;
10230;SDS011;62604;49.432;8.680;2023-03-01T09:49:14;12.52;;;11.25;;
10230;SDS011;62604;49.432;8.680;2023-03-01T09:51:47;17.05;;;11.13;;
10230;SDS011;62604;49.432;8.680;2023-03-01T09:54:23;12.07;;;10.80;;
10230;SDS011;62604;49.432;8.680;2023-03-01T09:56:57;12.88;;;11.18;;
10230;SDS011;62604;49.432;8.680;2023-03-01T09:59:33;14.05;;;11.57;;
10230;SDS011;62604;49.432;8.680;2023-03-01T10:02:18;14.02;;;11.07;;
10230;SDS011;62604;49.432;8.680;2023-03-01T10:04:50;12.10;;;10.90;;
10230;SDS011;62604;49.432;8.680;2023-03-01T10:07:27;14.60;;;11.05;;
10230;SDS011;62604;49.432;8.680;2023-03-01T10:09:58;11.02;;;9.95;;
10230;SDS011;62604;49.432;8.680;2023-03-01T10:12:31;12.45;;;11.15;;
10230;SDS011;62604;49.432;8.680;2023-03-01T10:15:02;13.10;;;10.02;;
10230;SDS011;62604;49.432;8.680;2023-03-01T10:17:35;14.20;;;11.05;;
10230;SDS011;62604;49.432;8.680;2023-03-01T10:20:17;12.35;;;11.10;;
10230;SDS011;62604;49.432;8.680;2023-03-01T10:22:47;12.48;;;10.48;;
10230;SDS011;62604;49.432;8.680;2023-03-01T10:25:20;14.32;;;11.07;;
10230;SDS011;62604;49.432;8.680;2023-03-01T10:28:10;12.88;;;10.38;;
10230;SDS011;62604;49.432;8.680;2023-03-01T10:30:43;12.32;;;10.27;;
10230;SDS011;62604;49.432;8.680;2023-03-01T10:33:14;12.40;;;10.45;;
10230;SDS011;62604;49.432;8.680;2023-03-01T10:35:44;11.52;;;10.35;;
10230;SDS011;62604;49.432;8.680;2023-03-01T10:38:12;11.75;;;10.55;;
10230;SDS011;62604;49.432;8.680;2023-03-01T10:40:50;11.35;;;10.15;;
10230;SDS011;62604;49.432;8.680;2023-03-01T10:43:19;15.32;;;10.88;;
10230;SDS011;62604;49.432;8.680;2023-03-01T10:45:46;11.85;;;10.63;;
10230;SDS011;62604;49.432;8.680;2023-03-01T10:48:15;11.38;;;10.20;;
10230;SDS011;62604;49.432;8.680;2023-03-01T10:50:45;11.43;;;10.23;;
10230;SDS011;62604;49.432;8.680;2023-03-01T10:53:19;11.57;;;10.25;;
10230;SDS011;62604;49.432;8.680;2023-03-01T10:56:00;11.05;;;9.95;;
10230;SDS011;62604;49.432;8.680;2023-03-01T10:58:29;13.07;;;9.30;;
10230;SDS011;62604;49.432;8.680;2023-03-01T11:00:58;10.13;;;9.13;;
10230;SDS011;62604;49.432;8.680;2023-03-01T11:03:28;11.38;;;9.80;;
10230;SDS011;62604;49.432;8.680;2023-03-01T11:06:01;11.00;;;9.90;;
10230;SDS011;62604;49.432;8.680;2023-03-01T11:08:33;10.95;;;9.85;;
10230;SDS011;62604;49.432;8.680;2023-03-01T11:11:06;11.88;;;10.00;;
10230;SDS011;62604;49.432;8.680;2023-03-01T11:13:53;11.65;;;10.07;;
10230;SDS011;62604;49.432;8.680;2023-03-01T11:16:31;11.20;;;10.05;;
10230;SDS011;62604;49.432;8.680;2023-03-01T11:21:50;11.50;;;9.73;;
10230;SDS011;62604;49.432;8.680;2023-03-01T11:24:27;13.95;;;9.77;;
10230;SDS011;62604;49.432;8.680;2023-03-01T11:27:08;10.82;;;9.07;;
10230;SDS011;62604;49.432;8.680;2023-03-01T11:29:44;12.50;;;9.70;;
10230;SDS011;62604;49.432;8.680;2023-03-01T11:32:16;10.68;;;9.52;;
10230;SDS011;62604;49.432;8.680;2023-03-01T11:34:49;10.45;;;9.35;;
10230;SDS011;62604;49.432;8.680;2023-03-01T11:37:21;11.85;;;9.68;;
10230;SDS011;62604;49.432;8.680;2023-03-01T11:39:58;12.00;;;10.73;;
10230;SDS011;62604;49.432;8.680;2023-03-01T11:42:37;11.80;;;10.63;;
10230;SDS011;62604;49.432;8.680;2023-03-01T11:45:12;10.77;;;9.68;;
10230;SDS011;62604;49.432;8.680;2023-03-01T11:47:46;15.02;;;9.77;;
10230;SDS011;62604;49.432;8.680;2023-03-01T11:50:37;11.98;;;10.07;;
10230;SDS011;62604;49.432;8.680;2023-03-01T11:53:13;19.35;;;11.55;;
10230;SDS011;62604;49.432;8.680;2023-03-01T11:56:02;11.55;;;10.45;;
10230;SDS011;62604;49.432;8.680;2023-03-01T12:01:40;10.75;;;9.70;;
10230;SDS011;62604;49.432;8.680;2023-03-01T12:07:22;12.68;;;9.13;;
10230;SDS011;62604;49.432;8.680;2023-03-01T12:09:58;10.70;;;9.60;;
10230;SDS011;62604;49.432;8.680;2023-03-01T12:12:45;10.07;;;7.88;;
10230;SDS011;62604;49.432;8.680;2023-03-01T12:15:23;9.35;;;8.35;;
10230;SDS011;62604;49.432;8.680;2023-03-01T12:18:15;11.68;;;10.48;;
10230;SDS011;62604;49.432;8.680;2023-03-01T12:21:08;11.13;;;9.57;;
10230;SDS011;62604;49.432;8.680;2023-03-01T12:23:51;12.52;;;9.07;;
10230;SDS011;62604;49.432;8.680;2023-03-01T12:26:30;9.73;;;8.80;;
10230;SDS011;62604;49.432;8.680;2023-03-01T12:29:02;9.93;;;9.02;;
10230;SDS011;62604;49.432;8.680;2023-03-01T12:32:00;9.88;;;8.88;;
10230;SDS011;62604;49.432;8.680;2023-03-01T12:34:47;10.10;;;9.10;;
10230;SDS011;62604;49.432;8.680;2023-03-01T12:37:36;9.95;;;8.32;;
10230;SDS011;62604;49.432;8.680;2023-03-01T12:40:17;9.70;;;8.70;;
10230;SDS011;62604;49.432;8.680;2023-03-01T12:43:18;10.52;;;9.27;;
10230;SDS011;62604;49.432;8.680;2023-03-01T12:45:57;10.60;;;9.35;;
10230;SDS011;62604;49.432;8.680;2023-03-01T12:48:39;10.90;;;9.07;;
10230;SDS011;62604;49.432;8.680;2023-03-01T12:51:12;13.13;;;9.93;;
10230;SDS011;62604;49.432;8.680;2023-03-01T12:53:43;10.40;;;9.35;;
10230;SDS011;62604;49.432;8.680;2023-03-01T12:56:15;9.63;;;8.32;;
10230;SDS011;62604;49.432;8.680;2023-03-01T12:58:48;10.93;;;9.82;;
10230;SDS011;62604;49.432;8.680;2023-03-01T13:01:25;11.80;;;9.60;;
10230;SDS011;62604;49.432;8.680;2023-03-01T13:04:19;11.02;;;9.90;;
10230;SDS011;62604;49.432;8.680;2023-03-01T13:07:11;10.63;;;9.32;;
10230;SDS011;62604;49.432;8.680;2023-03-01T13:09:47;10.98;;;9.98;;
10230;SDS011;62604;49.432;8.680;2023-03-01T13:15:26;12.13;;;9.68;;
10230;SDS011;62604;49.432;8.680;2023-03-01T13:17:55;10.63;;;9.63;;
10230;SDS011;62604;49.432;8.680;2023-03-01T13:20:24;11.18;;;9.30;;
10230;SDS011;62604;49.432;8.680;2023-03-01T13:23:02;10.43;;;9.32;;
10230;SDS011;62604;49.432;8.680;2023-03-01T13:25:32;12.70;;;9.32;;
10230;SDS011;62604;49.432;8.680;2023-03-01T13:31:07;10.15;;;8.73;;
10230;SDS011;62604;49.432;8.680;2023-03-01T13:33:42;11.15;;;10.02;;
10230;SDS011;62604;49.432;8.680;2023-03-01T13:36:11;10.77;;;9.20;;
10230;SDS011;62604;49.432;8.680;2023-03-01T13:41:56;11.27;;;9.03;;
10230;SDS011;62604;49.432;8.680;2023-03-01T13:44:26;9.90;;;8.90;;
10230;SDS011;62604;49.432;8.680;2023-03-01T13:46:59;9.73;;;8.73;;
10230;SDS011;62604;49.432;8.680;2023-03-01T13:49:33;12.25;;;9.40;;
10230;SDS011;62604;49.432;8.680;2023-03-01T13:52:13;9.50;;;8.55;;
10230;SDS011;62604;49.432;8.680;2023-03-01T13:54:56;10.07;;;9.03;;
10230;SDS011;62604;49.432;8.680;2023-03-01T13:57:26;11.83;;;9.33;;
10230;SDS011;62604;49.432;8.680;2023-03-01T13:59:59;9.47;;;8.57;;
10230;SDS011;62604;49.432;8.680;2023-03-01T14:02:26;10.87;;;8.90;;
10230;SDS011;62604;49.432;8.680;2023-03-01T14:04:56;11.93;;;9.63;;
10230;SDS011;62604;49.432;8.680;2023-03-01T14:07:24;9.67;;;8.70;;
10230;SDS011;62604;49.432;8.680;2023-03-01T14:09:54;16.47;;;8.87;;
10230;SDS011;62604;49.432;8.680;2023-03-01T14:12:26;9.20;;;8.30;;
10230;SDS011;62604;49.432;8.680;2023-03-01T14:15:06;10.40;;;8.77;;
10230;SDS011;62604;49.432;8.680;2023-03-01T14:17:43;11.23;;;9.23;;
10230;SDS011;62604;49.432;8.680;2023-03-01T14:20:19;10.80;;;8.83;;
10230;SDS011;62604;49.432;8.680;2023-03-01T14:22:47;9.77;;;8.63;;
10230;SDS011;62604;49.432;8.680;2023-03-01T14:25:21;10.03;;;8.87;;
10230;SDS011;62604;49.432;8.680;2023-03-01T14:27:58;10.90;;;9.10;;
10230;SDS011;62604;49.432;8.680;2023-03-01T14:30:31;9.63;;;8.63;;
10230;SDS011;62604;49.432;8.680;2023-03-01T14:33:02;9.63;;;8.63;;
10230;SDS011;62604;49.432;8.680;2023-03-01T14:39:59;15.80;;;14.20;;
10230;SDS011;62604;49.432;8.680;2023-03-01T14:42:30;16.63;;;14.80;;
10230;SDS011;62604;49.432;8.680;2023-03-01T14:45:02;17.87;;;15.10;;
10230;SDS011;62604;49.432;8.680;2023-03-01T14:47:46;16.10;;;14.60;;
10230;SDS011;62604;49.432;8.680;2023-03-01T14:50:18;16.73;;;14.93;;
10230;SDS011;62604;49.432;8.680;2023-03-01T14:52:52;17.00;;;15.07;;
10230;SDS011;62604;49.432;8.680;2023-03-01T14:55:29;16.40;;;14.67;;
10230;SDS011;62604;49.432;8.680;2023-03-01T14:58:00;15.80;;;14.30;;
10230;SDS011;62604;49.432;8.680;2023-03-01T15:00:31;16.23;;;14.73;;
10230;SDS011;62604;49.432;8.680;2023-03-01T15:03:05;16.67;;;14.90;;
10230;SDS011;62604;49.432;8.680;2023-03-01T15:05:39;16.47;;;14.93;;
10230;SDS011;62604;49.432;8.680;2023-03-01T15:08:19;16.63;;;15.03;;
10230;SDS011;62604;49.432;8.680;2023-03-01T15:11:16;16.13;;;14.23;;
10230;SDS011;62604;49.432;8.680;2023-03-01T15:13:49;15.90;;;14.30;;
10230;SDS011;62604;49.432;8.680;2023-03-01T15:16:18;17.53;;;14.13;;
10230;SDS011;62604;49.432;8.680;2023-03-01T15:18:48;15.60;;;14.13;;
10230;SDS011;62604;49.432;8.680;2023-03-01T15:21:19;16.17;;;14.50;;
10230;SDS011;62604;49.432;8.680;2023-03-01T15:23:52;16.33;;;14.70;;